Time;durP1;ratioP1;P1;durP2;ratioP2;P2;SDS_P1;SDS_P2;PMS_P1;PMS_P2;Temp;Humidity;BMP_temperature;BMP_pressure;BME280_temperature;BME280_humidity;BME280_pressure;Samples;Min_cycle;Max_cycle;Signal;HPM_P1;HPM_P2
2023/01/24 00:01:17;;;;;;;20.47;12.37;;;2.70;99.90;;;6.11;54.04;98987.81;5031605;28;20037;-41
2023/01/24 00:03:45;;;;;;;20.93;12.60;;;2.70;99.90;;;6.10;54.71;98981.66;5031841;28;20068;-41
2023/01/24 00:06:14;;;;;;;19.60;12.00;;;2.70;99.90;;;6.09;54.40;98972.03;5023801;28;20045;-41
2023/01/24 00:08:42;;;;;;;21.53;11.63;;;2.70;99.90;;;6.12;54.00;98984.19;5031872;28;20040;-42
2023/01/24 00:11:12;;;;;;;23.53;12.37;;;2.70;99.90;;;6.14;54.57;98982.31;5031268;28;20045;-41
2023/01/24 00:13:40;;;;;;;19.57;12.10;;;2.60;99.90;;;6.18;54.04;98983.78;5031681;28;20060;-42
2023/01/24 00:16:20;;;;;;;25.00;14.87;;;2.70;99.90;;;6.18;54.15;98978.50;5031635;28;20045;-41
2023/01/24 00:18:49;;;;;;;31.47;16.57;;;2.70;99.90;;;6.16;54.56;98976.91;5031470;28;20041;-40
2023/01/24 00:21:23;;;;;;;33.53;16.40;;;2.70;99.90;;;6.18;54.21;98978.50;5031208;28;20037;-41
2023/01/24 00:23:53;;;;;;;38.17;20.27;;;2.70;99.90;;;6.18;53.91;98975.84;5031246;28;20204;-42
2023/01/24 00:26:23;;;;;;;36.23;20.23;;;2.70;99.90;;;6.16;54.17;98975.13;5029702;28;20053;-40
2023/01/24 00:28:52;;;;;;;29.23;16.13;;;2.80;99.90;;;6.15;54.40;98972.59;5031280;28;20044;-41
2023/01/24 00:31:20;;;;;;;25.90;14.07;;;2.80;99.90;;;6.11;54.19;98975.44;5021316;28;20053;-43
2023/01/24 00:33:48;;;;;;;32.80;16.73;;;2.80;99.90;;;6.16;54.50;98974.28;5038075;28;20050;-41
2023/01/24 00:36:16;;;;;;;29.53;16.30;;;2.70;99.90;;;6.18;53.84;98972.38;5038470;28;20041;-41
2023/01/24 00:38:44;;;;;;;29.67;16.87;;;2.70;99.90;;;6.21;53.80;98970.38;5031188;28;20052;-40
2023/01/24 00:41:12;;;;;;;34.90;18.17;;;2.70;99.90;;;6.20;54.27;98971.31;5037083;28;20405;-41
2023/01/24 00:43:40;;;;;;;30.20;16.87;;;2.70;99.90;;;6.19;54.74;98972.28;5031105;28;20057;-41
2023/01/24 00:46:09;;;;;;;31.23;16.07;;;2.70;99.90;;;6.21;54.30;98967.75;5030850;28;20505;-41
2023/01/24 00:48:37;;;;;;;24.30;13.17;;;2.70;99.90;;;6.18;54.26;98964.44;5037749;28;20049;-41
2023/01/24 00:51:05;;;;;;;22.83;14.07;;;2.70;99.90;;;6.18;53.61;98983.78;5029299;28;20042;-41
2023/01/24 00:53:33;;;;;;;22.43;11.90;;;2.70;99.90;;;6.18;53.68;98985.59;5030963;28;20044;-43
2023/01/24 00:56:01;;;;;;;20.73;11.27;;;2.70;99.90;;;6.19;54.38;98971.44;5037796;28;20058;-43
2023/01/24 00:58:28;;;;;;;21.27;12.23;;;2.70;99.90;;;6.18;54.32;98982.97;5031005;28;20049;-44
2023/01/24 01:01:00;;;;;;;19.87;10.83;;;2.70;99.90;;;6.16;53.68;98984.84;5030441;28;20496;-41
2023/01/24 01:03:28;;;;;;;22.23;11.90;;;2.70;99.90;;;6.17;54.28;98984.75;5029580;28;20048;-41
2023/01/24 01:06:07;;;;;;;23.53;12.83;;;2.70;99.90;;;6.20;54.72;98987.19;5013237;28;20054;-41
2023/01/24 01:08:35;;;;;;;18.43;11.87;;;2.70;99.90;;;6.23;54.08;98983.50;5029534;28;20052;-41
2023/01/24 01:11:03;;;;;;;22.23;12.00;;;2.70;99.90;;;6.18;54.28;98989.09;5030479;28;20421;-41
2023/01/24 01:13:32;;;;;;;21.33;13.27;;;2.70;99.90;;;6.17;54.07;98989.22;5029710;28;20042;-41
2023/01/24 01:16:19;;;;;;;20.70;10.83;;;2.70;99.90;;;6.07;54.15;98983.69;5030545;28;20417;-41
2023/01/24 01:18:48;;;;;;;18.33;10.37;;;2.70;99.90;;;6.07;54.40;98983.69;5031010;28;20064;-40
2023/01/24 01:21:19;;;;;;;19.67;11.53;;;2.70;99.90;;;6.09;54.65;98989.72;5037772;28;20056;-41
2023/01/24 01:23:47;;;;;;;19.80;11.03;;;2.70;99.90;;;6.08;54.60;98990.66;5029021;28;20045;-41
2023/01/24 01:26:21;;;;;;;19.67;11.00;;;2.70;99.90;;;6.10;54.73;98997.50;5037825;28;20056;-41
2023/01/24 01:28:49;;;;;;;19.63;11.20;;;2.70;99.90;;;6.10;54.37;99005.44;5021691;28;20054;-40
2023/01/24 01:31:19;;;;;;;22.13;12.80;;;2.60;99.90;;;6.12;54.07;99008.00;5013943;28;20053;-41
2023/01/24 01:33:47;;;;;;;18.93;10.83;;;2.70;99.90;;;6.16;54.22;98998.06;5029601;28;20037;-40
2023/01/24 01:36:14;;;;;;;22.20;12.67;;;2.60;99.90;;;6.17;54.39;99002.44;5029378;28;20408;-41
2023/01/24 01:38:42;;;;;;;19.50;11.47;;;2.70;99.90;;;6.14;54.48;99002.63;5032001;28;20046;-41
2023/01/24 01:41:13;;;;;;;20.37;11.13;;;2.70;99.90;;;6.18;54.27;99010.25;5039527;28;20524;-41
2023/01/24 01:44:37;;;;;;;21.77;11.83;;;2.70;99.90;;;6.19;53.67;99001.38;5034455;28;20064;-41
2023/01/24 01:46:58;;;;;;;19.93;11.27;;;2.70;99.90;;;6.19;53.94;99006.66;5032458;28;20125;-42
2023/01/24 01:49:27;;;;;;;20.23;11.50;;;2.70;99.90;;;6.20;54.57;98999.56;5031047;28;20169;-41
2023/01/24 01:52:03;;;;;;;20.63;11.90;;;2.60;99.90;;;6.20;54.37;99000.41;5032825;28;20038;-42
2023/01/24 01:54:37;;;;;;;19.10;11.27;;;2.70;99.90;;;6.18;54.26;99004.94;5025241;28;20053;-41
2023/01/24 01:57:09;;;;;;;19.75;10.98;;;2.70;99.90;;;6.18;53.97;99002.31;5032505;28;20052;-41
2023/01/24 02:00:11;;;;;;;17.67;10.40;;;2.70;99.90;;;6.17;53.95;99005.06;5033763;28;20041;-40
2023/01/24 02:02:46;;;;;;;22.07;11.07;;;2.70;99.90;;;6.19;53.78;99009.31;5025210;28;20052;-41
2023/01/24 02:05:19;;;;;;;16.97;11.03;;;2.70;99.90;;;6.21;54.59;99003.91;5033191;28;20084;-42
2023/01/24 02:07:58;;;;;;;25.38;11.48;;;2.70;99.90;;;6.21;54.35;99002.13;5024642;28;20041;-41
2023/01/24 02:13:15;;;;;;;20.73;11.13;;;2.70;99.90;;;6.22;54.15;99009.13;5041240;28;20049;-41
2023/01/24 02:16:03;;;;;;;22.33;11.07;;;2.60;99.90;;;6.21;54.19;99007.41;5033986;28;20044;-41
2023/01/24 02:18:34;;;;;;;18.40;11.13;;;2.70;99.90;;;6.17;53.97;99016.50;5025962;28;20037;-42
2023/01/24 02:21:07;;;;;;;24.27;10.83;;;2.70;99.90;;;6.19;54.12;99011.13;5040828;28;20056;-41
2023/01/24 02:24:05;;;;;;;18.40;12.13;;;2.70;99.90;;;6.17;54.12;99019.13;5032685;28;20072;-41
2023/01/24 02:26:33;;;;;;;19.43;10.83;;;2.70;99.90;;;6.22;54.68;99014.41;5031849;28;20049;-41
2023/01/24 02:29:09;;;;;;;24.70;12.83;;;2.70;99.90;;;6.18;53.71;99014.69;5040252;28;20046;-41
2023/01/24 02:31:58;;;;;;;21.00;11.17;;;2.70;99.90;;;6.13;53.99;99017.66;5024228;28;20037;-41
2023/01/24 02:34:29;;;;;;;25.53;13.33;;;2.70;99.90;;;6.14;54.04;99018.47;5033441;28;20041;-41
2023/01/24 02:37:10;;;;;;;23.93;12.93;;;2.60;99.90;;;6.15;54.70;99028.13;5032342;28;20540;-41
2023/01/24 02:40:02;;;;;;;19.73;11.53;;;2.60;99.90;;;6.15;54.15;99030.78;5032036;28;20081;-42
2023/01/24 02:42:35;;;;;;;20.97;12.33;;;2.60;99.90;;;6.15;54.20;99034.25;5025306;28;20042;-41
2023/01/24 02:45:27;;;;;;;22.05;11.07;;;2.60;99.90;;;6.14;54.72;99037.84;5031743;28;20049;-41
2023/01/24 02:47:56;;;;;;;18.97;11.50;;;2.70;99.90;;;6.19;53.91;99034.91;5033158;28;20397;-41
2023/01/24 02:53:28;;;;;;;18.43;11.73;;;2.60;99.90;;;6.19;54.22;99043.69;5031717;28;20045;-41
2023/01/24 02:53:30;;;;;;;21.67;11.57;;;2.60;99.90;;;6.17;53.77;99032.34;5031147;28;20045;-41
2023/01/24 02:58:51;;;;;;;22.03;10.97;;;2.60;99.90;;;6.06;53.86;99048.91;5040300;28;20073;-42
2023/01/24 03:01:21;;;;;;;20.77;11.67;;;2.60;99.90;;;6.07;53.76;99050.63;5031388;28;20041;-41
2023/01/24 03:03:55;;;;;;;20.10;11.47;;;2.60;99.90;;;6.04;54.66;99048.16;5040123;28;20053;-41
2023/01/24 03:06:23;;;;;;;18.87;10.83;;;2.60;99.90;;;6.04;54.14;99042.03;5015994;28;20052;-41
2023/01/24 03:08:52;;;;;;;18.80;11.60;;;2.60;99.90;;;6.03;54.89;99042.97;5039697;28;20041;-41
2023/01/24 03:11:27;;;;;;;20.53;11.33;;;2.60;99.90;;;6.05;54.40;99043.75;5039965;28;20147;-41
2023/01/24 03:36:19;;;;;;;20.60;11.83;;;2.60;99.90;;;6.04;54.13;99044.66;5017157;28;20068;-41
2023/01/24 03:41:35;;;;;;;20.10;11.40;;;2.60;99.90;;;6.05;54.67;99036.66;5030906;28;20044;-41
2023/01/24 03:44:04;;;;;;;20.27;11.87;;;2.60;99.90;;;6.03;54.41;99038.53;5030321;28;20046;-41
2023/01/24 03:46:32;;;;;;;19.77;11.43;;;2.60;99.90;;;6.05;54.15;99038.44;5031992;28;20044;-42
2023/01/24 03:48:59;;;;;;;18.87;11.60;;;2.60;99.90;;;6.02;54.04;99039.47;5031865;28;20520;-41
2023/01/24 03:54:19;;;;;;;20.07;11.00;;;2.60;99.90;;;6.06;54.80;99056.00;5025057;28;20045;-41
2023/01/24 03:57:06;;;;;;;20.60;11.03;;;2.60;99.90;;;6.09;54.25;99050.53;5039292;28;20505;-41
2023/01/24 03:59:33;;;;;;;18.97;10.83;;;2.60;99.90;;;6.11;54.56;99048.63;5030215;28;20069;-41
2023/01/24 04:02:02;;;;;;;19.90;10.97;;;2.70;99.90;;;6.13;54.20;99048.50;5037514;28;20448;-41
2023/01/24 04:07:21;;;;;;;22.43;12.40;;;2.60;99.90;;;6.15;54.51;99044.84;5039162;28;20054;-41
2023/01/24 04:10:05;;;;;;;17.30;12.07;;;2.70;99.90;;;6.15;54.07;99044.00;5029580;28;20048;-42
2023/01/24 04:12:42;;;;;;;20.90;11.37;;;2.70;99.90;;;6.15;53.73;99042.19;5030045;28;20144;-41
2023/01/24 04:15:20;;;;;;;19.27;11.50;;;2.70;99.90;;;6.15;54.41;99042.19;5031580;28;20042;-40
2023/01/24 04:17:57;;;;;;;21.53;12.03;;;2.70;99.90;;;6.20;53.56;99049.81;5030561;28;20057;-41
2023/01/24 04:20:27;;;;;;;20.57;10.57;;;2.60;99.90;;;6.20;53.65;99045.38;5029681;28;20041;-41
2023/01/24 04:22:55;;;;;;;21.37;11.27;;;2.70;99.90;;;6.20;53.56;99049.81;5030401;28;20049;-41
2023/01/24 04:25:25;;;;;;;20.30;11.83;;;2.70;99.90;;;6.19;53.91;99050.78;5038306;28;20443;-41
2023/01/24 04:27:52;;;;;;;21.50;11.10;;;2.60;99.90;;;6.18;53.87;99041.97;5031263;28;20260;-41
2023/01/24 04:30:24;;;;;;;21.33;11.20;;;2.70;99.90;;;6.13;53.90;99032.63;5031169;28;20042;-41
2023/01/24 04:32:55;;;;;;;21.43;11.83;;;2.70;99.90;;;6.12;54.29;99034.44;5038156;28;20057;-40
2023/01/24 04:35:28;;;;;;;23.43;11.80;;;2.60;99.90;;;6.11;54.42;99035.41;5029740;28;20041;-42
2023/01/24 04:37:59;;;;;;;21.83;11.50;;;2.60;99.90;;;6.09;53.65;99038.16;5037965;28;20045;-42
2023/01/24 04:40:38;;;;;;;23.73;13.33;;;2.60;99.90;;;6.10;53.92;99044.28;5015043;28;20060;-43
2023/01/24 04:43:07;;;;;;;21.13;12.10;;;2.70;99.90;;;6.06;54.43;99040.13;5037761;28;20053;-41
2023/01/24 04:45:35;;;;;;;22.33;12.20;;;2.60;99.90;;;6.03;54.54;99040.31;5031473;28;20037;-41
2023/01/24 04:48:09;;;;;;;20.07;11.60;;;2.60;99.90;;;6.04;54.31;99037.56;5030341;28;20056;-41
2023/01/24 04:50:36;;;;;;;25.87;13.03;;;2.60;99.90;;;6.05;54.86;99041.09;5030045;28;20736;-40
2023/01/24 04:53:06;;;;;;;20.73;12.10;;;2.60;99.90;;;6.04;54.18;99039.38;5037874;28;20049;-41
2023/01/24 04:55:35;;;;;;;22.63;13.40;;;2.60;99.90;;;6.04;53.96;99055.25;5029852;28;20053;-41
2023/01/24 04:58:03;;;;;;;21.00;11.87;;;2.60;99.90;;;6.07;54.24;99049.78;5031250;28;20072;-41
2023/01/24 05:00:30;;;;;;;23.70;12.67;;;2.60;99.90;;;6.09;54.07;99051.38;5022939;28;20409;-41
2023/01/24 05:02:58;;;;;;;21.17;12.30;;;2.60;99.90;;;6.05;54.27;99046.38;5037719;28;20053;-41
2023/01/24 05:05:28;;;;;;;23.50;12.80;;;2.60;99.90;;;6.03;54.74;99053.53;5029513;28;20509;-41
2023/01/24 05:07:55;;;;;;;22.03;13.00;;;2.60;99.90;;;6.00;55.03;99048.47;5030984;28;20053;-40
2023/01/24 05:10:25;;;;;;;23.60;12.77;;;2.60;99.90;;;6.03;54.49;99061.47;5037179;28;20440;-40
2023/01/24 05:12:53;;;;;;;22.37;11.87;;;2.60;99.90;;;6.03;54.47;99054.41;5032599;28;20038;-41
2023/01/24 05:15:23;;;;;;;17.73;11.23;;;2.60;99.90;;;6.03;54.75;99058.81;5041900;28;20133;-41
2023/01/24 05:17:52;;;;;;;24.20;13.50;;;2.70;99.90;;;6.03;54.64;99062.34;5033558;28;20048;-41
2023/01/24 05:20:23;;;;;;;23.73;12.10;;;2.70;99.90;;;6.05;54.38;99052.50;5041648;28;20060;-41
2023/01/24 05:22:51;;;;;;;23.10;12.63;;;2.70;99.90;;;6.04;54.81;99053.44;5033297;28;20049;-41
2023/01/24 05:25:21;;;;;;;23.10;13.53;;;2.70;99.90;;;6.05;54.09;99060.44;5041762;28;20417;-41
2023/01/24 05:27:49;;;;;;;20.33;11.83;;;2.70;99.90;;;6.07;54.21;99066.47;5033430;28;20076;-42
2023/01/24 05:30:18;;;;;;;22.40;11.67;;;2.70;99.90;;;6.09;54.57;99069.03;5033310;28;20069;-41
2023/01/24 05:32:48;;;;;;;20.13;12.77;;;2.70;99.90;;;6.10;54.67;99074.19;5033250;28;20121;-41
2023/01/24 05:35:17;;;;;;;23.53;11.57;;;2.70;99.90;;;6.10;54.36;99066.25;5033090;28;20513;-41
2023/01/24 05:37:47;;;;;;;21.93;13.00;;;2.70;99.90;;;6.09;54.36;99074.31;5033024;28;20296;-42
2023/01/24 05:40:18;;;;;;;22.30;11.07;;;2.70;99.90;;;6.07;54.69;99068.28;5032878;28;20045;-41
2023/01/24 05:42:46;;;;;;;18.37;11.00;;;2.70;99.90;;;6.07;54.73;99079.69;5041331;28;20516;-41
2023/01/24 05:45:14;;;;;;;21.77;12.63;;;2.70;99.90;;;6.03;54.67;99072.91;5040978;28;20045;-40
2023/01/24 05:47:42;;;;;;;25.93;14.60;;;2.70;99.90;;;6.08;54.50;99076.09;5031854;28;20045;-41
2023/01/24 05:50:14;;;;;;;25.07;14.00;;;2.70;99.90;;;6.12;54.02;99076.75;5032838;28;20052;-41
2023/01/24 05:52:43;;;;;;;31.23;16.43;;;2.70;99.90;;;6.14;54.89;99079.31;5032874;28;20053;-41
2023/01/24 05:55:10;;;;;;;24.07;14.13;;;2.60;99.90;;;6.16;54.29;99085.34;5032864;28;20046;-42
2023/01/24 05:57:44;;;;;;;28.05;13.65;;;2.60;99.90;;;6.15;53.67;99084.50;5032959;28;20608;-41
2023/01/24 06:00:16;;;;;;;26.27;12.87;;;2.60;99.90;;;6.15;53.96;99087.16;5033758;28;20508;-41
2023/01/24 06:03:03;;;;;;;26.43;12.57;;;2.60;99.90;;;6.15;54.21;99087.16;5034629;28;20065;-41
2023/01/24 06:05:32;;;;;;;23.10;13.13;;;2.60;99.90;;;6.14;54.17;99092.53;5040853;28;20116;-41
2023/01/24 06:08:00;;;;;;;29.20;16.20;;;2.60;99.90;;;6.16;54.39;99083.53;5033227;28;20049;-41
2023/01/24 06:10:28;;;;;;;22.27;13.00;;;2.60;99.90;;;6.17;54.22;99087.91;5032678;28;20065;-40
2023/01/24 06:13:04;;;;;;;23.97;13.13;;;2.60;99.90;;;6.16;54.28;99104.69;5032442;28;20157;-41
2023/01/24 06:15:31;;;;;;;29.20;14.20;;;2.60;99.90;;;6.16;54.46;99102.03;5040460;28;20536;-41
2023/01/24 06:18:00;;;;;;;25.73;14.90;;;2.60;99.90;;;6.18;53.90;99104.59;5032249;28;20056;-42
2023/01/24 06:20:29;;;;;;;32.20;16.07;;;2.60;99.90;;;6.19;54.04;99103.66;5040657;28;20076;-41
2023/01/24 06:23:06;;;;;;;28.03;14.83;;;2.60;99.90;;;6.21;54.36;99104.41;5040826;28;20049;-41
2023/01/24 06:25:39;;;;;;;22.73;13.47;;;2.60;99.90;;;6.23;54.23;99107.81;5040723;28;20056;-41
2023/01/24 06:28:09;;;;;;;25.40;13.13;;;2.60;99.90;;;6.21;53.70;99107.91;5033648;28;20068;-42
2023/01/24 06:30:41;;;;;;;26.17;13.90;;;2.70;99.90;;;6.17;54.02;99106.41;5033314;28;20041;-41
2023/01/24 06:34:19;;;;;;;28.70;16.73;;;2.60;99.90;;;6.07;53.75;99111.44;5033564;28;20046;-41
2023/01/24 06:37:14;;;;;;;27.50;15.87;;;2.60;99.90;;;6.11;54.06;99117.38;5004559;28;20053;-42
2023/01/24 06:39:50;;;;;;;28.63;15.30;;;2.60;99.90;;;6.06;54.08;99120.28;4990507;28;20049;-42
2023/01/24 06:42:20;;;;;;;23.50;14.03;;;2.60;99.90;;;6.06;54.12;99122.09;5027246;28;20068;-42
2023/01/24 06:44:49;;;;;;;30.17;15.10;;;2.60;99.90;;;6.07;54.78;99119.34;5032224;28;20049;-41
2023/01/24 06:47:16;;;;;;;25.03;14.20;;;2.60;99.90;;;6.06;53.98;99122.94;5032244;28;20501;-42
2023/01/24 06:49:44;;;;;;;27.30;14.57;;;2.60;99.90;;;6.04;54.32;99119.53;5032767;28;20034;-41
2023/01/24 06:52:13;;;;;;;25.47;14.13;;;2.60;99.90;;;6.04;54.32;99118.69;5031556;28;20394;-41
2023/01/24 06:54:40;;;;;;;24.63;12.93;;;2.60;99.90;;;6.03;54.35;99130.19;5033452;28;20509;-42
2023/01/24 06:57:08;;;;;;;24.63;14.40;;;2.60;99.90;;;6.06;53.99;99130.03;5033401;28;20049;-42
2023/01/24 06:59:36;;;;;;;31.73;16.07;;;2.60;99.90;;;6.11;54.91;99134.09;5031080;28;20042;-41
2023/01/24 07:02:04;;;;;;;29.30;14.57;;;2.60;99.90;;;6.13;54.01;99128.69;5032314;28;20057;-41
2023/01/24 07:04:31;;;;;;;28.27;15.40;;;2.60;99.90;;;6.14;54.39;99132.19;5032549;28;20064;-41
2023/01/24 07:06:59;;;;;;;28.67;15.30;;;2.60;99.90;;;6.15;54.24;99142.69;5032897;28;20515;-41
2023/01/24 07:09:27;;;;;;;28.70;15.63;;;2.70;99.90;;;6.16;54.81;99133.78;5031551;28;20045;-40
2023/01/24 07:11:57;;;;;;;25.90;15.27;;;2.70;99.90;;;6.13;54.40;99141.06;5032764;28;20412;-41
2023/01/24 07:14:25;;;;;;;27.60;14.73;;;2.70;99.90;;;6.08;54.08;99142.19;5032768;28;20408;-41
2023/01/24 07:16:55;;;;;;;28.57;14.70;;;2.70;99.90;;;6.02;54.61;99141.75;5031623;28;20049;-41
2023/01/24 07:19:25;;;;;;;26.20;14.30;;;2.60;99.90;;;5.90;54.31;99140.69;5032541;28;20052;-40
2023/01/24 07:21:56;;;;;;;28.93;14.87;;;2.50;99.90;;;5.89;54.23;99145.13;5032442;28;20057;-40
2023/01/24 07:24:29;;;;;;;29.30;17.40;;;2.50;99.90;;;5.82;54.46;99149.09;5032693;28;20052;-41
2023/01/24 07:26:57;;;;;;;26.10;14.90;;;2.50;99.90;;;5.84;55.46;99147.19;5032304;28;20555;-40
2023/01/24 07:29:25;;;;;;;32.43;15.93;;;2.50;99.90;;;5.84;55.23;99156.94;5032079;28;20045;-41
2023/01/24 07:31:53;;;;;;;24.90;14.73;;;2.60;99.90;;;5.88;54.95;99153.16;5032307;28;20052;-41
2023/01/24 07:34:21;;;;;;;26.40;15.73;;;2.60;99.90;;;5.90;55.35;99160.03;5032400;28;20045;-41
2023/01/24 07:36:49;;;;;;;30.97;17.27;;;2.50;99.90;;;5.97;55.08;99162.31;5031979;28;20052;-41
2023/01/24 07:39:17;;;;;;;34.47;18.20;;;2.50;99.90;;;5.95;54.33;99157.13;5032049;28;20523;-42
2023/01/24 07:41:45;;;;;;;32.07;16.20;;;2.50;99.90;;;5.97;54.43;99160.53;5028018;28;20037;-43
2023/01/24 07:44:13;;;;;;;46.07;23.13;;;2.50;99.90;;;5.94;54.98;99159.84;5031906;28;20046;-42
2023/01/24 07:46:41;;;;;;;51.63;24.97;;;2.60;99.90;;;5.93;55.00;99158.97;5024393;28;20485;-41
2023/01/24 07:49:09;;;;;;;53.77;27.87;;;2.60;99.90;;;5.95;55.11;99170.34;5031965;28;20041;-43
2023/01/24 07:51:37;;;;;;;44.00;20.70;;;2.60;99.90;;;5.88;54.59;99167.19;5031695;28;20037;-41
2023/01/24 07:54:05;;;;;;;41.97;20.63;;;2.50;99.90;;;5.94;54.83;99159.84;5032034;28;20053;-42
2023/01/24 07:56:36;;;;;;;42.57;21.07;;;2.50;99.90;;;5.98;54.68;99167.50;5032302;28;20045;-41
2023/01/24 07:59:04;;;;;;;43.10;23.10;;;2.50;99.90;;;6.02;55.00;99181.41;5014231;28;20437;-43
2023/01/24 08:01:32;;;;;;;45.27;21.43;;;2.60;99.90;;;6.06;55.42;99175.81;5030393;28;20323;-45
2023/01/24 08:04:00;;;;;;;39.40;20.40;;;2.60;99.90;;;6.03;54.74;99177.78;5031826;28;20049;-46
2023/01/24 08:06:27;;;;;;;50.53;23.33;;;2.60;99.90;;;6.01;54.39;99177.91;5031776;28;20053;-42
2023/01/24 08:08:55;;;;;;;40.40;22.00;;;2.60;99.90;;;6.03;55.06;99180.44;5031933;28;20045;-41
2023/01/24 08:11:23;;;;;;;47.00;24.43;;;2.70;99.90;;;6.01;54.94;99180.56;5030957;28;20045;-43
2023/01/24 08:13:51;;;;;;;52.53;27.97;;;2.70;99.90;;;6.06;55.44;99181.09;5031215;28;20041;-43
2023/01/24 08:16:23;;;;;;;54.47;28.97;;;2.70;99.90;;;6.11;55.57;99188.78;5038858;28;20046;-42
2023/01/24 08:18:51;;;;;;;50.93;27.80;;;2.70;99.90;;;6.18;54.65;99191.88;5031581;28;20041;-43
2023/01/24 08:21:19;;;;;;;56.53;30.30;;;2.70;99.90;;;6.20;54.90;99196.09;5030747;28;20060;-44
2023/01/24 08:23:47;;;;;;;50.83;25.80;;;2.80;99.90;;;6.24;54.85;99202.06;5032020;28;20053;-43
2023/01/24 08:26:15;;;;;;;48.20;24.83;;;2.80;99.90;;;6.20;54.27;99201.41;5031217;28;20041;-42
2023/01/24 08:28:42;;;;;;;54.23;26.90;;;2.80;99.90;;;6.21;55.01;99203.09;5023133;28;20057;-43
2023/01/24 08:31:10;;;;;;;49.60;24.57;;;2.80;99.90;;;6.23;54.95;99208.31;5030479;28;20046;-43
2023/01/24 08:33:38;;;;;;;46.13;22.77;;;2.80;99.90;;;6.23;54.69;99201.22;5029727;28;20045;-45
2023/01/24 08:36:06;;;;;;;47.63;23.17;;;2.80;99.90;;;6.26;54.44;99211.63;5031092;28;20416;-42
2023/01/24 08:38:34;;;;;;;37.90;19.73;;;2.80;99.90;;;6.28;53.90;99214.13;5030810;28;20049;-43
2023/01/24 08:41:04;;;;;;;35.30;18.60;;;2.70;99.90;;;6.26;54.39;99214.25;5029473;28;20042;-43
2023/01/24 08:43:35;;;;;;;26.87;15.20;;;2.80;99.90;;;6.29;54.62;99207.91;5030911;28;20052;-44
2023/01/24 08:46:03;;;;;;;40.73;22.10;;;2.70;99.90;;;6.26;54.13;99213.38;5030988;28;20057;-42
2023/01/24 08:48:31;;;;;;;37.63;20.70;;;2.70;99.90;;;6.22;54.95;99211.88;5029421;28;20417;-42
2023/01/24 08:51:03;;;;;;;36.30;19.17;;;2.80;99.90;;;6.26;55.02;99216.03;5030496;28;20042;-41
2023/01/24 08:53:31;;;;;;;38.00;19.60;;;2.80;99.90;;;6.29;54.75;99223.78;5029668;28;20049;-43
2023/01/24 08:56:02;;;;;;;36.43;19.23;;;2.80;99.90;;;6.30;54.52;99221.06;5030871;28;20052;-44
2023/01/24 08:58:33;;;;;;;45.13;23.10;;;2.80;99.90;;;6.37;54.72;99221.50;5030645;28;20057;-42
2023/01/24 09:01:09;;;;;;;38.03;20.83;;;2.80;99.90;;;6.39;54.10;99224.06;5029103;28;20064;-44
2023/01/24 09:04:04;;;;;;;43.57;21.07;;;2.90;99.90;;;6.37;54.66;99224.16;5031055;28;20041;-42
2023/01/24 09:06:32;;;;;;;43.47;24.43;;;2.90;99.90;;;6.37;54.44;99223.31;5030765;28;20041;-41
2023/01/24 09:09:00;;;;;;;36.77;21.93;;;2.90;99.90;;;6.32;55.06;99231.56;5030422;28;20044;-45
2023/01/24 09:11:27;;;;;;;46.63;23.37;;;2.90;99.90;;;6.32;54.61;99231.56;5029847;28;20045;-43
2023/01/24 09:13:56;;;;;;;46.47;22.83;;;2.90;99.90;;;6.36;54.28;99232.19;5026918;28;20042;-42
2023/01/24 09:16:24;;;;;;;33.47;16.80;;;2.90;99.90;;;6.39;54.41;99235.50;5030581;28;20409;-42
2023/01/24 09:18:53;;;;;;;27.70;15.90;;;2.90;99.90;;;6.38;54.63;99225.88;5030714;28;20481;-42
2023/01/24 09:21:21;;;;;;;33.50;17.77;;;2.90;99.90;;;6.37;54.93;99236.53;5030172;28;20057;-43
2023/01/24 09:23:49;;;;;;;33.33;17.60;;;3.00;99.90;;;6.39;54.29;99239.94;5029318;28;20048;-41
2023/01/24 09:26:17;;;;;;;28.33;16.47;;;3.00;99.90;;;6.42;54.42;99237.97;5030925;28;20398;-42
2023/01/24 09:28:44;;;;;;;24.90;14.57;;;3.00;99.90;;;6.42;54.47;99243.25;5030605;28;20040;-42
2023/01/24 09:31:12;;;;;;;28.23;15.53;;;3.00;99.90;;;6.40;54.67;99237.19;5030540;28;20138;-41
2023/01/24 09:33:40;;;;;;;30.57;16.83;;;3.00;99.90;;;6.40;54.72;99239.84;5030303;28;20401;-43
2023/01/24 09:36:24;;;;;;;;;;;2.90;99.90;;;6.42;54.42;99240.59;5030857;28;20049;-47
2023/01/24 09:38:52;;;;;;;29.83;17.83;;;2.90;99.90;;;6.51;54.52;99239.16;5030461;28;20308;-42
2023/01/24 09:42:17;;;;;;;34.67;15.73;;;3.00;99.90;;;6.44;54.88;99238.72;5030014;28;20049;-43
2023/01/24 09:45:20;;;;;;;29.50;16.13;;;3.00;99.90;;;6.50;54.59;99245.41;5029419;28;20042;-42
2023/01/24 09:47:56;;;;;;;29.80;15.60;;;3.10;99.90;;;6.50;54.06;99253.34;5021105;28;20273;-43
2023/01/24 09:50:48;;;;;;;26.23;13.83;;;3.10;99.90;;;6.49;53.95;99254.28;5028956;28;20057;-45
2023/01/24 09:53:29;;;;;;;26.50;13.03;;;3.00;99.90;;;6.50;54.72;99254.19;5030845;28;20056;-43
2023/01/24 09:55:59;;;;;;;24.27;13.07;;;3.00;99.90;;;6.54;54.48;99252.22;5022748;28;20422;-43
2023/01/24 09:58:36;;;;;;;18.77;12.20;;;3.00;99.90;;;6.53;54.15;99253.13;5029232;28;20489;-42
2023/01/24 10:01:11;;;;;;;20.57;12.30;;;3.00;99.90;;;6.50;54.14;99250.69;5032344;28;20050;-44
2023/01/24 10:03:40;;;;;;;20.50;12.67;;;3.00;99.90;;;6.48;54.68;99253.44;5032979;28;20048;-42
2023/01/24 10:06:25;;;;;;;23.83;12.53;;;2.90;99.90;;;6.42;54.56;99251.19;5033946;28;20048;-43
2023/01/24 10:09:35;;;;;;;23.53;12.97;;;3.00;99.90;;;6.44;54.37;99251.09;5025609;28;20052;-43
2023/01/24 10:12:24;;;;;;;23.37;11.93;;;3.00;99.90;;;6.45;53.96;99252.78;5026318;28;20042;-42
2023/01/24 10:15:07;;;;;;;22.50;11.67;;;3.00;99.90;;;6.45;54.41;99243.03;5026880;28;20041;-44
2023/01/24 10:17:46;;;;;;;17.70;10.90;;;3.00;99.90;;;6.47;54.67;99249.09;5033397;28;20048;-42
2023/01/24 10:21:10;;;;;;;17.07;10.37;;;3.10;99.90;;;6.42;54.37;99245.06;5033182;28;20041;-42
2023/01/24 10:23:41;;;;;;;18.67;9.43;;;3.10;99.90;;;6.54;54.54;99236.34;5031087;28;20049;-42
2023/01/24 10:26:27;;;;;;;20.47;12.50;;;3.10;99.90;;;6.54;55.17;99236.34;5048800;28;20053;-44
2023/01/24 10:29:00;;;;;;;21.10;10.97;;;3.20;99.90;;;6.57;54.58;99237.94;5026336;28;20056;-41
2023/01/24 10:31:40;;;;;;;19.20;10.37;;;3.20;99.90;;;6.58;54.22;99240.47;5030807;28;20053;-44
2023/01/24 10:34:26;;;;;;;22.37;11.60;;;3.20;99.90;;;6.63;54.14;99233.09;5032269;28;20436;-41
2023/01/24 10:37:09;;;;;;;18.67;10.77;;;3.20;99.90;;;6.68;54.19;99232.81;5032194;28;20049;-43
2023/01/24 10:39:37;;;;;;;18.10;10.83;;;3.30;99.90;;;6.69;54.34;99226.56;5039700;28;20050;-44
2023/01/24 10:42:32;;;;;;;21.60;12.23;;;3.20;99.90;;;6.68;54.05;99230.16;5028845;28;20417;-44
2023/01/24 10:45:14;;;;;;;;;;;3.30;99.90;;;6.69;54.50;99232.72;5025597;28;20064;-43
2023/01/24 10:47:56;;;;;;;22.70;11.40;;;3.30;99.90;;;6.78;54.61;99231.25;5033118;28;19921;-43
2023/01/24 10:50:24;;;;;;;24.50;12.03;;;3.30;99.90;;;6.78;53.71;99233.91;5031947;28;20505;-44
2023/01/24 10:52:51;;;;;;;22.43;12.10;;;3.30;99.90;;;6.76;54.27;99233.16;5032828;28;20052;-46
2023/01/24 10:55:35;;;;;;;21.40;10.67;;;3.40;99.90;;;6.76;54.49;99227.88;5032943;28;20048;-45
2023/01/24 10:58:27;;;;;;;16.90;10.07;;;3.40;99.90;;;6.68;54.42;99233.66;5026673;28;20049;-42
2023/01/24 11:01:19;;;;;;;24.67;12.17;;;3.40;99.90;;;6.79;54.71;99224.19;5027861;28;20053;-40
2023/01/24 11:03:51;;;;;;;21.37;10.83;;;3.40;99.90;;;6.87;54.11;99222.72;5032905;28;20042;-43
2023/01/24 11:06:38;;;;;;;22.13;11.43;;;3.50;99.90;;;6.87;53.96;99224.53;5033134;28;20057;-43
2023/01/24 11:09:12;;;;;;;26.43;12.77;;;3.50;99.90;;;6.91;54.02;99218.09;5026638;28;20420;-44
2023/01/24 11:11:48;;;;;;;21.92;11.35;;;3.50;99.90;;;6.90;54.37;99219.03;5031935;28;20057;-46
2023/01/24 11:14:36;;;;;;;17.20;9.73;;;3.60;99.90;;;6.92;54.16;99219.81;5031289;28;20546;-43
2023/01/24 11:17:28;;;;;;;14.37;8.77;;;3.60;99.90;;;6.95;54.13;99214.28;5026581;28;20045;-42
2023/01/24 11:20:20;;;;;;;19.00;10.23;;;3.60;99.90;;;6.92;54.39;99222.47;5023745;28;20048;-42
2023/01/24 11:22:51;;;;;;;19.10;9.73;;;3.60;99.90;;;6.96;53.92;99223.06;5036842;28;20045;-44